Time;durP1;ratioP1;P1;durP2;ratioP2;P2;SDS_P1;SDS_P2;PMS_P1;PMS_P2;Temp;Humidity;BMP_temperature;BMP_pressure;BME280_temperature;BME280_humidity;BME280_pressure;Samples;Min_cycle;Max_cycle;Signal;HPM_P1;HPM_P2
2022/11/07 00:01:59;;;;;;;10.43;5.03;;;10.10;99.90;;;;;;5038423;28;20522;-66
2022/11/07 00:04:27;;;;;;;12.73;5.18;;;10.20;99.90;;;;;;5037163;28;20043;-65
2022/11/07 00:06:53;;;;;;;6.75;4.18;;;10.20;99.90;;;;;;5039127;28;20360;-66
2022/11/07 00:09:18;;;;;;;10.48;4.40;;;10.20;99.90;;;;;;5038965;28;20061;-66
2022/11/07 00:11:44;;;;;;;11.77;4.72;;;10.20;99.90;;;;;;5044135;28;20388;-66
2022/11/07 00:14:14;;;;;;;9.90;4.90;;;10.30;99.90;;;;;;5037510;28;20037;-66
2022/11/07 00:16:40;;;;;;;8.48;4.65;;;10.30;99.90;;;;;;5042703;28;20183;-66
2022/11/07 00:19:05;;;;;;;8.52;4.45;;;10.40;99.90;;;;;;5035965;28;20065;-66
2022/11/07 00:21:31;;;;;;;8.88;4.57;;;10.30;99.90;;;;;;5040896;28;20048;-65
2022/11/07 00:23:57;;;;;;;8.95;4.15;;;10.30;99.90;;;;;;5037042;28;20037;-66
2022/11/07 00:26:23;;;;;;;9.60;4.45;;;10.40;99.90;;;;;;5044912;28;20219;-65
2022/11/07 00:28:49;;;;;;;12.50;4.40;;;10.40;99.90;;;;;;5040259;28;20037;-66
2022/11/07 00:31:15;;;;;;;10.23;4.22;;;10.40;99.90;;;;;;5051774;28;20052;-66
2022/11/07 00:33:42;;;;;;;6.85;3.95;;;10.40;99.90;;;;;;5058236;28;20420;-66
2022/11/07 00:36:09;;;;;;;7.93;4.07;;;10.40;99.90;;;;;;5060003;28;20028;-66
2022/11/07 00:38:35;;;;;;;12.43;4.53;;;10.40;99.90;;;;;;5059940;28;20033;-66
2022/11/07 00:41:04;;;;;;;8.23;3.85;;;10.40;99.90;;;;;;5059782;28;20096;-66
2022/11/07 00:43:30;;;;;;;10.55;4.07;;;10.50;99.90;;;;;;5059776;28;20097;-65
2022/11/07 00:45:56;;;;;;;12.05;4.57;;;10.40;99.90;;;;;;5061434;28;20071;-65
2022/11/07 00:48:23;;;;;;;9.27;3.60;;;10.50;99.90;;;;;;5057675;28;20053;-66
2022/11/07 00:50:48;;;;;;;13.32;4.05;;;10.50;99.90;;;;;;5059605;28;20115;-66
2022/11/07 00:53:14;;;;;;;7.80;3.28;;;10.50;99.90;;;;;;5058255;28;20172;-66
2022/11/07 00:55:40;;;;;;;11.27;4.63;;;10.50;99.90;;;;;;5056299;28;20396;-66
2022/11/07 00:58:06;;;;;;;13.20;4.30;;;10.50;99.90;;;;;;5049040;28;20036;-65
2022/11/07 01:00:31;;;;;;;11.57;3.85;;;10.50;99.90;;;;;;5037237;28;20047;-66
2022/11/07 01:05:41;;;;;;;11.30;3.87;;;10.40;99.90;;;;;;5061411;28;20047;-66
2022/11/07 01:08:07;;;;;;;9.13;3.65;;;10.40;99.90;;;;;;5060136;28;20033;-66
2022/11/07 01:10:32;;;;;;;11.35;3.97;;;10.40;99.90;;;;;;5056338;28;20045;-66
2022/11/07 01:12:58;;;;;;;10.77;3.42;;;10.50;99.90;;;;;;5054755;28;20045;-66
2022/11/07 01:15:24;;;;;;;9.88;4.10;;;10.50;99.90;;;;;;5043498;28;20048;-65
2022/11/07 01:17:50;;;;;;;9.05;4.05;;;10.50;99.90;;;;;;5063724;28;20064;-66
2022/11/07 01:20:15;;;;;;;12.18;4.00;;;10.50;99.90;;;;;;5056905;28;20041;-65
2022/11/07 01:22:41;;;;;;;12.30;4.03;;;10.50;99.90;;;;;;5058654;28;20091;-65
2022/11/07 01:25:07;;;;;;;9.52;3.47;;;10.60;99.90;;;;;;5061632;28;20408;-65
2022/11/07 01:27:33;;;;;;;7.75;3.95;;;10.50;99.90;;;;;;5063999;28;20040;-66
2022/11/07 01:29:58;;;;;;;9.80;3.75;;;10.60;99.90;;;;;;5058090;28;20041;-66
2022/11/07 01:32:24;;;;;;;10.45;3.88;;;10.50;99.90;;;;;;5057098;28;20432;-65
2022/11/07 01:34:50;;;;;;;9.85;3.50;;;10.50;99.90;;;;;;5058959;28;20040;-65
2022/11/07 01:37:16;;;;;;;12.05;4.60;;;10.60;99.90;;;;;;5062489;28;20037;-65
2022/11/07 01:39:41;;;;;;;10.90;3.85;;;10.60;99.90;;;;;;5055856;28;20116;-65
2022/11/07 01:42:11;;;;;;;7.90;3.45;;;10.60;99.90;;;;;;5059994;28;20029;-65
2022/11/07 01:44:39;;;;;;;7.03;3.90;;;10.60;99.90;;;;;;5061293;28;20036;-65
2022/11/07 01:47:06;;;;;;;8.45;3.13;;;10.70;99.90;;;;;;5061158;28;20037;-66
2022/11/07 01:49:35;;;;;;;7.70;3.45;;;10.60;99.90;;;;;;5047031;28;20040;-65
2022/11/07 01:52:03;;;;;;;9.75;3.22;;;10.70;99.90;;;;;;5060005;28;20032;-65
2022/11/07 01:54:37;;;;;;;10.18;3.97;;;10.70;99.90;;;;;;5051743;28;20396;-66
2022/11/07 01:57:07;;;;;;;7.57;3.03;;;10.70;99.90;;;;;;5060130;28;20075;-65
2022/11/07 01:59:35;;;;;;;8.68;3.50;;;10.80;99.90;;;;;;5060855;28;20041;-66
2022/11/07 02:02:02;;;;;;;8.48;2.90;;;10.80;99.90;;;;;;5062496;28;20036;-66
2022/11/07 02:04:30;;;;;;;10.68;3.67;;;10.70;99.90;;;;;;5044793;28;20564;-65
2022/11/07 02:07:10;;;;;;;10.90;3.25;;;10.80;99.90;;;;;;5062437;28;20087;-66
2022/11/07 02:09:36;;;;;;;11.65;3.10;;;10.80;99.90;;;;;;5063593;28;20107;-66
2022/11/07 02:12:02;;;;;;;9.25;2.83;;;10.80;99.90;;;;;;5044592;28;20065;-66
2022/11/07 02:14:29;;;;;;;8.65;3.20;;;10.90;99.90;;;;;;5063819;28;20108;-67
2022/11/07 02:16:55;;;;;;;12.57;3.15;;;10.90;99.90;;;;;;5058372;28;20033;-66
2022/11/07 02:19:35;;;;;;;12.35;2.83;;;10.80;99.90;;;;;;5066674;28;20483;-66
2022/11/07 02:22:44;;;;;;;10.57;3.30;;;10.90;99.90;;;;;;5059605;28;20428;-66
2022/11/07 02:25:16;;;;;;;10.13;3.15;;;10.90;99.90;;;;;;5054814;28;20234;-66
2022/11/07 02:27:43;;;;;;;10.52;3.88;;;10.90;99.90;;;;;;5059162;28;20452;-66
2022/11/07 02:30:18;;;;;;;10.35;3.40;;;10.90;99.90;;;;;;5069001;28;20095;-66
2022/11/07 02:32:45;;;;;;;;;;;10.90;99.90;;;;;;5041990;28;20149;-65
2022/11/07 02:35:35;;;;;;;10.38;3.22;;;10.90;99.90;;;;;;5043303;28;19916;-66
2022/11/07 02:38:24;;;;;;;10.88;3.33;;;10.90;99.90;;;;;;5044497;28;20493;-66
2022/11/07 02:40:54;;;;;;;11.00;2.83;;;11.00;99.90;;;;;;5044725;28;20029;-65
2022/11/07 02:43:25;;;;;;;9.63;3.08;;;10.90;99.90;;;;;;5040065;28;20052;-66
2022/11/07 02:45:53;;;;;;;12.45;3.30;;;10.90;99.90;;;;;;5046538;28;20117;-66
2022/11/07 02:48:19;;;;;;;8.38;3.10;;;11.00;99.90;;;;;;5035240;28;20117;-66
2022/11/07 02:50:45;;;;;;;10.98;3.22;;;10.90;99.90;;;;;;5046511;28;20029;-65
2022/11/07 02:53:11;;;;;;;12.80;3.40;;;10.90;99.90;;;;;;5038385;28;20041;-65
2022/11/07 02:55:36;;;;;;;7.30;2.92;;;11.00;99.90;;;;;;5047327;28;20037;-66
2022/11/07 02:58:02;;;;;;;9.95;3.05;;;11.00;99.90;;;;;;5035505;28;20295;-66
2022/11/07 03:00:28;;;;;;;14.02;3.58;;;11.00;99.90;;;;;;5043508;28;20512;-66
2022/11/07 03:02:54;;;;;;;9.48;3.22;;;11.00;99.90;;;;;;5044659;28;20044;-67
2022/11/07 03:05:20;;;;;;;9.60;3.28;;;11.00;99.90;;;;;;5041597;28;20040;-66
2022/11/07 03:07:47;;;;;;;10.00;3.20;;;11.00;99.90;;;;;;5040116;28;20405;-66
2022/11/07 03:10:14;;;;;;;11.13;3.70;;;11.00;99.90;;;;;;5042900;28;20041;-66
2022/11/07 03:12:40;;;;;;;11.15;3.67;;;10.90;99.90;;;;;;5041474;28;20087;-65
2022/11/07 03:15:09;;;;;;;15.88;4.30;;;11.00;99.90;;;;;;5045590;28;20033;-65
2022/11/07 03:17:34;;;;;;;12.20;4.15;;;11.00;99.90;;;;;;5041973;28;20512;-65
2022/11/07 03:20:00;;;;;;;11.80;4.10;;;11.00;99.90;;;;;;5038565;28;20042;-64
2022/11/07 03:22:26;;;;;;;12.65;3.85;;;10.90;99.90;;;;;;5042861;28;20551;-64
2022/11/07 03:24:52;;;;;;;11.23;3.88;;;10.80;99.90;;;;;;5040732;28;20038;-65
2022/11/07 03:27:18;;;;;;;11.43;2.97;;;10.80;99.90;;;;;;5040201;28;20037;-65
2022/11/07 03:29:44;;;;;;;13.43;3.78;;;10.70;99.90;;;;;;5038688;28;20063;-64
2022/11/07 03:32:10;;;;;;;14.45;3.83;;;10.70;99.90;;;;;;5054568;28;20045;-65
2022/11/07 03:34:36;;;;;;;11.88;3.53;;;10.60;99.90;;;;;;5052924;28;20452;-64
2022/11/07 03:37:02;;;;;;;11.40;3.05;;;10.60;99.90;;;;;;5062170;28;20115;-65
2022/11/07 03:39:28;;;;;;;11.77;4.15;;;10.50;99.90;;;;;;5062366;28;20034;-64
2022/11/07 03:41:54;;;;;;;12.70;3.22;;;10.60;99.90;;;;;;5061990;28;20041;-64
2022/11/07 03:44:20;;;;;;;15.68;3.90;;;10.60;99.90;;;;;;5058554;28;20403;-65
2022/11/07 03:46:45;;;;;;;13.32;4.03;;;10.60;99.90;;;;;;5060226;28;20457;-65
2022/11/07 03:49:11;;;;;;;16.92;3.25;;;10.60;99.90;;;;;;5043684;28;20051;-65
2022/11/07 03:51:37;;;;;;;14.82;3.65;;;10.60;99.90;;;;;;5061952;28;20040;-64
2022/11/07 03:54:02;;;;;;;12.77;3.70;;;10.60;99.90;;;;;;5056987;28;20037;-65
2022/11/07 03:56:28;;;;;;;15.27;4.03;;;10.60;99.90;;;;;;5056432;28;20151;-65
2022/11/07 03:58:54;;;;;;;12.27;3.70;;;10.60;99.90;;;;;;5065352;28;20036;-65
2022/11/07 04:01:19;;;;;;;12.57;3.60;;;10.60;99.90;;;;;;5061402;28;20025;-65
2022/11/07 04:03:45;;;;;;;12.55;3.15;;;10.70;99.90;;;;;;5044482;28;20484;-64
2022/11/07 04:06:11;;;;;;;12.27;3.60;;;10.70;99.90;;;;;;5061006;28;20049;-64
2022/11/07 04:08:37;;;;;;;12.57;3.40;;;10.70;99.90;;;;;;5060895;28;20037;-64
2022/11/07 04:11:03;;;;;;;14.55;4.15;;;10.70;99.90;;;;;;5062207;28;20041;-64
2022/11/07 04:18:57;;;;;;;8.05;3.35;;;10.70;99.90;;;;;;5062496;28;20511;-65
2022/11/07 04:21:23;;;;;;;12.23;3.67;;;10.80;99.90;;;;;;5064540;28;20543;-65
2022/11/07 04:23:49;;;;;;;15.13;3.75;;;10.80;99.90;;;;;;5061644;28;20191;-65
2022/11/07 04:29:03;;;;;;;12.85;3.50;;;10.80;99.90;;;;;;5026182;28;20048;-65
2022/11/07 04:31:29;;;;;;;11.63;4.00;;;10.70;99.90;;;;;;5063151;28;20400;-64
2022/11/07 04:33:55;;;;;;;14.85;4.00;;;10.70;99.90;;;;;;5058240;28;20434;-65
2022/11/07 04:36:20;;;;;;;12.68;3.60;;;10.70;99.90;;;;;;5059573;28;20479;-65
2022/11/07 04:38:46;;;;;;;15.32;3.95;;;10.70;99.90;;;;;;5061972;28;20105;-64
2022/11/07 04:41:20;;;;;;;12.93;3.97;;;10.70;99.90;;;;;;5060666;28;20029;-64
2022/11/07 04:43:46;;;;;;;13.90;3.38;;;10.70;99.90;;;;;;5060006;28;20079;-65
2022/11/07 04:46:12;;;;;;;12.68;3.67;;;10.60;99.90;;;;;;5058562;28;20130;-65
2022/11/07 04:48:37;;;;;;;13.27;4.15;;;10.60;99.90;;;;;;5058291;28;20052;-64
2022/11/07 04:51:03;;;;;;;14.15;3.90;;;10.60;99.90;;;;;;5061647;28;20036;-65
2022/11/07 04:53:29;;;;;;;14.45;3.38;;;10.60;99.90;;;;;;5058017;28;20198;-65
2022/11/07 04:55:55;;;;;;;12.38;3.72;;;10.60;99.90;;;;;;5062683;28;20037;-65
2022/11/07 04:58:20;;;;;;;13.27;3.80;;;10.60;99.90;;;;;;5059266;28;20119;-65
2022/11/07 05:00:46;;;;;;;17.80;3.80;;;10.50;99.90;;;;;;5064285;28;20033;-65
2022/11/07 05:03:11;;;;;;;11.23;3.35;;;10.50;99.90;;;;;;5060147;28;20125;-65
2022/11/07 05:05:38;;;;;;;10.85;3.63;;;10.50;99.90;;;;;;5060700;28;20048;-64
2022/11/07 05:08:04;;;;;;;11.60;3.40;;;10.50;99.90;;;;;;5061095;28;20392;-65
2022/11/07 05:10:30;;;;;;;10.38;3.35;;;10.40;99.90;;;;;;5040952;28;20049;-65
2022/11/07 05:12:56;;;;;;;12.50;3.60;;;10.40;99.90;;;;;;5060617;28;20492;-65
2022/11/07 05:15:22;;;;;;;10.38;3.38;;;10.40;99.90;;;;;;5060183;28;20050;-65
2022/11/07 05:17:48;;;;;;;13.77;3.67;;;10.40;99.90;;;;;;5041200;28;20044;-65
2022/11/07 05:20:25;;;;;;;17.50;4.45;;;10.40;99.90;;;;;;5058571;28;20028;-65
2022/11/07 05:25:34;;;;;;;14.23;3.60;;;10.40;99.90;;;;;;5066286;28;20105;-65
2022/11/07 05:28:00;;;;;;;13.15;4.18;;;10.40;99.90;;;;;;5064469;28;20649;-65
2022/11/07 05:30:26;;;;;;;11.45;3.83;;;10.50;99.90;;;;;;5062006;28;20429;-65
2022/11/07 05:32:51;;;;;;;12.50;4.18;;;10.50;99.90;;;;;;5062336;28;20499;-65
2022/11/07 05:35:17;;;;;;;10.52;3.78;;;10.40;99.90;;;;;;5062578;28;20035;-64
2022/11/07 05:37:43;;;;;;;11.80;3.97;;;10.50;99.90;;;;;;5057111;28;20039;-65
2022/11/07 05:40:09;;;;;;;11.73;4.30;;;10.40;99.90;;;;;;5061205;28;20508;-65
2022/11/07 05:42:35;;;;;;;11.90;3.70;;;10.40;99.90;;;;;;5063809;28;20499;-65
2022/11/07 05:45:00;;;;;;;11.18;4.15;;;10.50;99.90;;;;;;5064122;28;20041;-65
2022/11/07 05:47:26;;;;;;;18.08;4.53;;;10.50;99.90;;;;;;5061777;28;20041;-65
2022/11/07 05:49:52;;;;;;;11.57;4.07;;;10.50;99.90;;;;;;5057700;28;20051;-65
2022/11/07 05:52:17;;;;;;;12.63;4.20;;;10.50;99.90;;;;;;5062765;28;20402;-66
2022/11/07 05:54:43;;;;;;;9.70;4.10;;;10.50;99.90;;;;;;5061689;28;20033;-65
2022/11/07 05:57:08;;;;;;;13.77;3.85;;;10.50;99.90;;;;;;5061352;28;20064;-65
2022/11/07 05:59:34;;;;;;;17.30;4.07;;;10.50;99.90;;;;;;5059098;28;20036;-65
2022/11/07 06:02:00;;;;;;;19.67;4.38;;;10.50;99.90;;;;;;5062922;28;20440;-65
2022/11/07 06:04:25;;;;;;;7.80;3.50;;;10.50;99.90;;;;;;5061350;28;20095;-65
2022/11/07 06:06:51;;;;;;;14.60;4.30;;;10.50;99.90;;;;;;5060867;28;20039;-65
2022/11/07 06:09:17;;;;;;;14.27;4.15;;;10.50;99.90;;;;;;5062381;28;20040;-65
2022/11/07 06:11:42;;;;;;;14.98;3.83;;;10.60;99.90;;;;;;5065532;28;20115;-65
2022/11/07 06:14:08;;;;;;;14.13;4.32;;;10.60;99.90;;;;;;5063592;28;20037;-65
2022/11/07 06:16:34;;;;;;;12.52;3.65;;;10.60;99.90;;;;;;5058027;28;20410;-65
2022/11/07 06:19:01;;;;;;;16.02;4.22;;;10.60;99.90;;;;;;5061962;28;20037;-65
2022/11/07 06:21:26;;;;;;;10.45;3.70;;;10.70;99.90;;;;;;5061097;28;20048;-65
2022/11/07 06:23:52;;;;;;;15.68;4.57;;;10.60;99.90;;;;;;5062376;28;20114;-64
2022/11/07 06:26:18;;;;;;;14.10;4.60;;;10.70;99.90;;;;;;5060230;28;20476;-64
2022/11/07 06:28:43;;;;;;;14.23;4.18;;;10.70;99.90;;;;;;5064948;28;20498;-65
2022/11/07 06:31:10;;;;;;;13.95;5.03;;;10.70;99.90;;;;;;5064984;28;20057;-64
2022/11/07 06:33:35;;;;;;;18.65;5.32;;;10.70;99.90;;;;;;5064570;28;20496;-65
2022/11/07 06:36:11;;;;;;;18.33;6.57;;;10.70;99.90;;;;;;5060664;28;20040;-65
2022/11/07 06:38:38;;;;;;;19.38;5.43;;;10.70;99.90;;;;;;5064288;28;20041;-64
2022/11/07 06:41:09;;;;;;;12.68;4.85;;;10.70;99.90;;;;;;5057867;28;20506;-64
2022/11/07 06:43:36;;;;;;;15.65;5.88;;;10.70;99.90;;;;;;5055655;28;20041;-65
2022/11/07 06:46:07;;;;;;;17.80;6.10;;;10.70;99.90;;;;;;5059489;28;20388;-64
2022/11/07 06:48:33;;;;;;;13.55;6.20;;;10.70;99.90;;;;;;5056494;28;20120;-64
2022/11/07 06:51:00;;;;;;;14.32;5.53;;;10.70;99.90;;;;;;5056992;28;20662;-65
2022/11/07 06:53:27;;;;;;;18.20;6.35;;;10.70;99.90;;;;;;5052705;28;20049;-65
2022/11/07 06:55:53;;;;;;;23.05;6.65;;;10.70;99.90;;;;;;5052308;28;20084;-64
2022/11/07 06:58:20;;;;;;;16.33;6.43;;;10.70;99.90;;;;;;5055380;28;20036;-64
2022/11/07 07:00:45;;;;;;;19.60;6.90;;;10.70;99.90;;;;;;5050705;28;20072;-64
2022/11/07 07:03:11;;;;;;;21.02;7.28;;;10.70;99.90;;;;;;5034759;28;20048;-65
2022/11/07 07:05:37;;;;;;;17.42;6.60;;;10.70;99.90;;;;;;5056182;28;20068;-64
2022/11/07 07:08:05;;;;;;;17.02;6.63;;;10.80;99.90;;;;;;5062336;28;20044;-65
2022/11/07 07:10:34;;;;;;;17.88;6.25;;;10.70;99.90;;;;;;5061137;28;20377;-64
2022/11/07 07:13:00;;;;;;;18.35;6.20;;;10.80;99.90;;;;;;5057855;28;20174;-64
2022/11/07 07:15:26;;;;;;;17.08;6.88;;;10.80;99.90;;;;;;5061873;28;20492;-64
2022/11/07 07:17:51;;;;;;;19.65;6.32;;;10.80;99.90;;;;;;5062459;28;20178;-64
2022/11/07 07:20:17;;;;;;;14.77;6.05;;;10.80;99.90;;;;;;5062636;28;20036;-64
2022/11/07 07:22:44;;;;;;;20.58;5.97;;;10.90;99.90;;;;;;5049008;28;20048;-65
2022/11/07 07:25:10;;;;;;;21.58;6.45;;;10.90;99.90;;;;;;5059108;28;20055;-65
2022/11/07 07:27:36;;;;;;;18.70;5.80;;;10.90;99.90;;;;;;5063437;28;20120;-65
2022/11/07 07:30:02;;;;;;;13.73;5.72;;;10.90;99.90;;;;;;5065787;28;20037;-65
2022/11/07 07:32:27;;;;;;;18.60;5.78;;;11.00;99.90;;;;;;5058990;28;20056;-64
2022/11/07 07:34:53;;;;;;;17.10;6.15;;;10.90;99.90;;;;;;5058182;28;20071;-64
2022/11/07 07:37:19;;;;;;;13.05;5.85;;;11.00;99.90;;;;;;5063906;28;20025;-64
2022/11/07 07:39:44;;;;;;;14.25;5.82;;;11.10;99.90;;;;;;5064793;28;20040;-64
2022/11/07 07:42:10;;;;;;;18.48;6.30;;;11.10;99.90;;;;;;5058713;28;20526;-64
2022/11/07 07:44:36;;;;;;;14.90;5.03;;;11.10;99.90;;;;;;5065455;28;20036;-64
2022/11/07 07:47:01;;;;;;;18.13;5.32;;;11.10;99.90;;;;;;5064630;28;20476;-64
2022/11/07 07:49:27;;;;;;;18.10;5.55;;;11.10;99.90;;;;;;5061151;28;20079;-64
2022/11/07 07:51:53;;;;;;;19.00;5.53;;;11.20;99.90;;;;;;5062091;28;20037;-64
2022/11/07 07:54:19;;;;;;;16.92;4.82;;;11.20;99.90;;;;;;5057247;28;20036;-64
2022/11/07 07:56:45;;;;;;;15.18;5.15;;;11.20;99.90;;;;;;5063008;28;20029;-64
2022/11/07 07:59:10;;;;;;;13.50;4.47;;;11.30;99.90;;;;;;5060083;28;20033;-65
2022/11/07 08:01:36;;;;;;;15.32;4.80;;;11.30;99.90;;;;;;5056020;28;20036;-65
2022/11/07 08:04:02;;;;;;;18.27;4.55;;;11.30;99.90;;;;;;5059003;28;20122;-64
2022/11/07 08:06:28;;;;;;;17.23;5.13;;;11.30;99.90;;;;;;5060202;28;20044;-64
2022/11/07 08:08:53;;;;;;;16.40;4.38;;;11.40;99.90;;;;;;5054165;28;20045;-64
2022/11/07 08:11:19;;;;;;;13.63;4.20;;;11.40;99.90;;;;;;5056726;28;20499;-65
2022/11/07 08:13:45;;;;;;;18.35;4.97;;;11.50;99.90;;;;;;5061537;28;20085;-64
2022/11/07 08:16:11;;;;;;;13.85;4.88;;;11.50;99.90;;;;;;5063230;28;20074;-65
2022/11/07 08:18:38;;;;;;;15.00;4.28;;;11.50;99.90;;;;;;5062436;28;20082;-64
2022/11/07 08:21:04;;;;;;;14.77;4.22;;;11.60;99.90;;;;;;5061763;28;20143;-64
2022/11/07 08:23:30;;;;;;;16.60;4.25;;;11.50;99.90;;;;;;5063007;28;20028;-65
2022/11/07 08:25:58;;;;;;;16.58;4.20;;;11.60;99.90;;;;;;5064144;28;20051;-64
2022/11/07 08:28:27;;;;;;;14.52;3.85;;;11.70;99.90;;;;;;5061094;28;20056;-65
2022/11/07 08:31:01;;;;;;;19.80;3.72;;;11.70;99.90;;;;;;5066819;28;20048;-64
2022/11/07 08:33:28;;;;;;;12.32;3.97;;;11.80;99.90;;;;;;5058400;28;20051;-64
2022/11/07 08:36:01;;;;;;;16.35;3.85;;;11.80;99.90;;;;;;5059337;28;20040;-65
2022/11/07 08:38:28;;;;;;;9.88;3.47;;;11.80;99.90;;;;;;5059402;28;20381;-65
2022/11/07 08:40:54;;;;;;;13.50;3.70;;;11.90;99.90;;;;;;5063384;28;20078;-65
2022/11/07 08:43:20;;;;;;;14.02;3.90;;;11.90;99.90;;;;;;5058741;28;20100;-65
2022/11/07 08:45:47;;;;;;;14.05;3.90;;;11.90;99.90;;;;;;5041665;28;20422;-65
2022/11/07 08:48:14;;;;;;;15.13;4.20;;;12.00;99.90;;;;;;5062791;28;20369;-65
2022/11/07 08:50:40;;;;;;;15.23;3.65;;;12.00;99.90;;;;;;5043358;28;20041;-65
2022/11/07 08:53:06;;;;;;;16.23;4.15;;;12.00;99.90;;;;;;5040791;28;20074;-65
2022/11/07 08:55:32;;;;;;;19.10;3.50;;;12.00;99.90;;;;;;5060398;28;20043;-65
2022/11/07 08:58:05;;;;;;;16.05;3.45;;;12.00;99.90;;;;;;5063558;28;20472;-65
2022/11/07 09:00:32;;;;;;;13.60;3.40;;;12.10;99.90;;;;;;5062349;28;20037;-65
2022/11/07 09:03:06;;;;;;;14.95;3.70;;;12.10;99.90;;;;;;5060445;28;20116;-65
2022/11/07 09:05:32;;;;;;;13.17;3.23;;;12.10;99.90;;;;;;5061046;28;20040;-65
2022/11/07 09:07:57;;;;;;;12.23;4.05;;;12.10;99.90;;;;;;5064284;28;20047;-65
2022/11/07 09:10:24;;;;;;;13.88;3.35;;;12.10;99.90;;;;;;5043273;28;20056;-66
2022/11/07 09:12:51;;;;;;;12.77;3.30;;;12.10;99.90;;;;;;5063186;28;20033;-65
2022/11/07 09:15:17;;;;;;;14.18;3.53;;;12.10;99.90;;;;;;5061556;28;20484;-65
2022/11/07 09:17:45;;;;;;;19.33;3.60;;;12.10;99.90;;;;;;5061297;28;20052;-65
2022/11/07 09:20:12;;;;;;;18.15;4.03;;;12.10;99.90;;;;;;5060904;28;20040;-65
2022/11/07 09:22:38;;;;;;;15.38;3.40;;;12.00;99.90;;;;;;5060060;28;20535;-64
2022/11/07 09:25:04;;;;;;;16.00;3.35;;;12.00;99.90;;;;;;5064412;28;20028;-65
2022/11/07 09:27:29;;;;;;;13.98;3.55;;;12.00;99.90;;;;;;5059756;28;20043;-66
2022/11/07 09:29:55;;;;;;;12.20;3.05;;;12.00;99.90;;;;;;5059015;28;20044;-65
2022/11/07 09:32:21;;;;;;;10.52;3.10;;;12.00;99.90;;;;;;5060054;28;20060;-65
2022/11/07 09:34:46;;;;;;;16.52;3.05;;;12.00;99.90;;;;;;5060712;28;20103;-65
2022/11/07 09:37:12;;;;;;;15.07;3.63;;;12.10;99.90;;;;;;5055021;28;20072;-64
2022/11/07 09:39:38;;;;;;;12.70;3.47;;;12.10;99.90;;;;;;5059983;28;20480;-64
2022/11/07 09:42:33;;;;;;;11.35;2.95;;;12.20;99.90;;;;;;5058656;28;20079;-65
2022/11/07 09:45:00;;;;;;;9.25;2.60;;;12.20;99.90;;;;;;5041940;28;20446;-65
2022/11/07 09:47:36;;;;;;;11.88;2.80;;;12.30;99.90;;;;;;5037496;28;20049;-64
2022/11/07 09:50:41;;;;;;;11.60;2.65;;;12.30;99.90;;;;;;5063955;28;20041;-65
2022/11/07 09:53:21;;;;;;;17.90;3.20;;;12.40;99.90;;;;;;5030102;28;20037;-64
2022/11/07 09:55:54;;;;;;;13.65;3.13;;;12.40;99.90;;;;;;5055930;28;20037;-66
2022/11/07 09:58:29;;;;;;;14.57;2.90;;;12.50;99.90;;;;;;5059639;28;20039;-64
2022/11/07 10:01:05;;;;;;;14.27;2.97;;;12.50;99.90;;;;;;5060841;28;20077;-65
2022/11/07 10:03:33;;;;;;;9.55;3.88;;;12.50;99.90;;;;;;5044578;28;20049;-66
2022/11/07 10:06:06;;;;;;;14.77;3.13;;;12.50;99.90;;;;;;5057761;28;20127;-65
2022/11/07 10:08:56;;;;;;;11.10;3.08;;;12.60;99.90;;;;;;5062093;28;20072;-65
2022/11/07 10:11:43;;;;;;;13.57;3.00;;;12.60;99.90;;;;;;5067335;28;20540;-65
2022/11/07 10:14:47;;;;;;;11.68;3.30;;;12.70;99.90;;;;;;5064372;28;20290;-65
2022/11/07 10:17:43;;;;;;;13.88;3.53;;;12.90;99.90;;;;;;5028217;28;20041;-64
2022/11/07 10:20:17;;;;;;;12.00;3.15;;;13.10;99.90;;;;;;5069563;28;20032;-66
2022/11/07 10:23:01;;;;;;;;;;;13.20;99.90;;;;;;5061509;28;20150;-65
2022/11/07 10:25:45;;;;;;;11.15;3.60;;;13.20;99.90;;;;;;5061006;28;20076;-65
2022/11/07 10:28:15;;;;;;;11.10;2.88;;;13.20;99.90;;;;;;5060826;28;20484;-67
2022/11/07 10:30:50;;;;;;;13.43;3.30;;;13.30;99.90;;;;;;5065173;28;20057;-67
2022/11/07 10:33:37;;;;;;;9.65;2.47;;;13.30;99.90;;;;;;5061087;28;20127;-67
2022/11/07 10:36:22;;;;;;;11.63;2.88;;;13.30;99.90;;;;;;5065912;28;20091;-67
2022/11/07 10:38:47;;;;;;;14.43;2.80;;;13.20;99.90;;;;;;5048666;28;20037;-67
2022/11/07 10:41:25;;;;;;;13.35;2.85;;;13.20;99.90;;;;;;5066354;28;20065;-67
2022/11/07 10:44:21;;;;;;;11.07;3.05;;;13.30;99.90;;;;;;5039890;28;20052;-67
2022/11/07 10:46:47;;;;;;;11.30;2.42;;;13.30;99.90;;;;;;5061184;28;20094;-67
2022/11/07 10:49:25;;;;;;;11.48;2.67;;;13.30;99.90;;;;;;5064823;28;20448;-67
2022/11/07 10:51:51;;;;;;;12.63;2.65;;;13.30;99.90;;;;;;5063727;28;20072;-67
2022/11/07 10:54:28;;;;;;;12.07;4.00;;;13.40;99.90;;;;;;5061650;28;20040;-67
2022/11/07 10:57:10;;;;;;;12.02;2.50;;;13.60;99.90;;;;;;5061695;28;20029;-67
2022/11/07 10:59:44;;;;;;;16.45;3.10;;;13.60;99.90;;;;;;5044262;28;20047;-67
2022/11/07 11:02:22;;;;;;;8.77;2.55;;;13.60;99.90;;;;;;5061048;28;20029;-67
2022/11/07 11:04:50;;;;;;;7.75;2.22;;;13.70;99.90;;;;;;5070809;28;20145;-67
2022/11/07 11:07:15;;;;;;;12.30;2.65;;;13.80;99.90;;;;;;5061603;28;20032;-67
2022/11/07 11:09:54;;;;;;;10.05;2.13;;;13.90;99.90;;;;;;5063523;28;20051;-67
2022/11/07 11:12:28;;;;;;;15.98;2.70;;;13.90;99.90;;;;;;5059008;28;20378;-67
2022/11/07 11:15:10;;;;;;;8.98;2.58;;;13.90;99.90;;;;;;5061447;28;20045;-67
2022/11/07 11:17:36;;;;;;;8.07;2.17;;;13.90;99.90;;;;;;5062940;28;20068;-67
2022/11/07 11:20:03;;;;;;;9.45;2.40;;;13.90;99.90;;;;;;5059222;28;20125;-67
2022/11/07 11:22:29;;;;;;;12.35;2.20;;;13.90;99.90;;;;;;5063634;28;20041;-67
2022/11/07 11:25:19;;;;;;;11.90;3.50;;;14.00;99.90;;;;;;5063766;28;20404;-67
2022/11/07 11:27:47;;;;;;;11.27;1.90;;;14.00;99.90;;;;;;5062166;28;20041;-67
2022/11/07 11:30:18;;;;;;;10.15;2.65;;;14.00;99.90;;;;;;5062915;28;20124;-67
2022/11/07 11:33:05;;;;;;;11.85;2.45;;;14.10;99.90;;;;;;5049753;28;20051;-67
2022/11/07 11:35:43;;;;;;;16.77;3.55;;;14.10;99.90;;;;;;5062848;28;20124;-67
2022/11/07 11:38:18;;;;;;;13.30;2.42;;;14.20;99.90;;;;;;5065524;28;20044;-67
2022/11/07 11:40:49;;;;;;;11.65;2.97;;;14.20;99.90;;;;;;5060273;28;20047;-68
2022/11/07 11:43:37;;;;;;;8.38;2.05;;;14.20;99.90;;;;;;5041151;28;20460;-67
2022/11/07 11:46:13;;;;;;;10.40;2.33;;;14.20;99.90;;;;;;5057757;28;20114;-67
2022/11/07 11:48:43;;;;;;;8.63;2.30;;;14.10;99.90;;;;;;5060525;28;20052;-67
2022/11/07 11:51:18;;;;;;;10.88;2.03;;;14.10;99.90;;;;;;5035812;28;20045;-67
2022/11/07 11:53:43;;;;;;;10.88;2.65;;;14.00;99.90;;;;;;5061777;28;20040;-67
2022/11/07 11:56:34;;;;;;;10.60;2.42;;;13.90;99.90;;;;;;5064214;28;20105;-67
2022/11/07 11:59:18;;;;;;;10.93;2.35;;;13.90;99.90;;;;;;5046369;28;20400;-67
2022/11/07 12:02:22;;;;;;;8.82;1.90;;;13.90;99.90;;;;;;5056282;28;20033;-68
2022/11/07 12:05:06;;;;;;;11.65;1.90;;;13.90;99.90;;;;;;5060848;28;20120;-67
2022/11/07 12:07:49;;;;;;;;;;;13.90;99.90;;;;;;5046646;28;20037;-68
2022/11/07 12:10:31;;;;;;;9.38;3.17;;;13.90;99.90;;;;;;5058868;28;19917;-68
2022/11/07 12:13:26;;;;;;;8.50;2.35;;;14.00;99.90;;;;;;5055458;28;20488;-67
2022/11/07 12:16:09;;;;;;;10.70;2.05;;;14.00;99.90;;;;;;5062174;28;20045;-67
2022/11/07 12:18:40;;;;;;;8.98;2.42;;;14.10;99.90;;;;;;5057197;28;20610;-67
2022/11/07 12:21:33;;;;;;;10.65;2.15;;;14.10;99.90;;;;;;5058824;28;20041;-67
2022/11/07 12:24:14;;;;;;;10.57;2.05;;;14.30;99.90;;;;;;5061807;28;20040;-67
2022/11/07 12:27:07;;;;;;;11.07;2.00;;;14.40;99.90;;;;;;5058553;28;20040;-68
2022/11/07 12:29:46;;;;;;;10.30;2.20;;;14.40;99.90;;;;;;5063168;28;20395;-68
2022/11/07 12:32:39;;;;;;;8.77;2.35;;;14.40;99.90;;;;;;5037286;28;20075;-68
2022/11/07 12:35:29;;;;;;;11.57;2.05;;;14.40;99.90;;;;;;5060325;28;20080;-67
2022/11/07 12:37:58;;;;;;;8.40;1.98;;;14.40;99.90;;;;;;5051899;28;20037;-68
2022/11/07 12:40:26;;;;;;;9.25;1.83;;;14.40;99.90;;;;;;5060947;28;20506;-67
2022/11/07 12:43:10;;;;;;;9.68;2.00;;;14.30;99.90;;;;;;5054422;28;20594;-68
2022/11/07 12:45:56;;;;;;;8.23;2.00;;;14.30;99.90;;;;;;5061421;28;20136;-68
2022/11/07 12:49:06;;;;;;;8.10;2.10;;;14.30;99.90;;;;;;5053393;28;20029;-67
2022/11/07 12:51:58;;;;;;;10.98;2.58;;;14.30;99.90;;;;;;5057239;28;20048;-68
2022/11/07 12:54:41;;;;;;;10.60;2.28;;;14.30;99.90;;;;;;5031478;28;20053;-67
2022/11/07 12:57:21;;;;;;;11.18;2.53;;;14.30;99.90;;;;;;5056201;28;20053;-68
2022/11/07 12:59:52;;;;;;;7.97;2.13;;;14.30;99.90;;;;;;5056528;28;20036;-68
2022/11/07 13:02:29;;;;;;;10.82;2.10;;;14.30;99.90;;;;;;5059056;28;20052;-68
2022/11/07 13:05:02;;;;;;;12.45;2.15;;;14.20;99.90;;;;;;5056097;28;20111;-68
2022/11/07 13:07:45;;;;;;;10.73;2.40;;;14.20;99.90;;;;;;5082798;28;20131;-68
2022/11/07 13:10:22;;;;;;;10.50;2.38;;;14.20;99.90;;;;;;5059255;28;20040;-68